Time;durP1;ratioP1;P1;durP2;ratioP2;P2;SDS_P1;SDS_P2;PMS_P1;PMS_P2;Temp;Humidity;BMP_temperature;BMP_pressure;BME280_temperature;BME280_humidity;BME280_pressure;Samples;Min_cycle;Max_cycle;Signal;HPM_P1;HPM_P2
2021/12/24 00:00:44;;;;;;;395.08;49.58;;;5.60;99.90;;;;;;2615824;54;20037;-68
2021/12/24 00:03:11;;;;;;;369.45;50.00;;;5.70;99.90;;;;;;2615449;54;20039;-68
2021/12/24 00:05:37;;;;;;;451.27;52.55;;;5.80;99.90;;;;;;2615572;54;20047;-68
2021/12/24 00:08:04;;;;;;;476.55;53.58;;;5.80;99.90;;;;;;2615911;54;20602;-68
2021/12/24 00:10:32;;;;;;;487.75;51.00;;;5.90;99.90;;;;;;2616019;54;20042;-68
2021/12/24 00:13:03;;;;;;;526.00;54.08;;;5.80;99.90;;;;;;2616093;47;20570;-68
2021/12/24 00:18:03;;;;;;;515.10;52.35;;;5.80;99.90;;;;;;2616041;54;20045;-69
2021/12/24 00:36:42;;;;;;;371.42;40.08;;;6.10;99.90;;;;;;2615926;54;20069;-68
2021/12/24 00:39:08;;;;;;;370.48;42.42;;;6.10;99.90;;;;;;2615592;54;20034;-68
2021/12/24 00:41:34;;;;;;;340.08;40.13;;;6.20;99.90;;;;;;2615675;54;20121;-68
2021/12/24 00:43:59;;;;;;;346.15;38.53;;;6.20;99.90;;;;;;2615714;47;20048;-68
2021/12/24 00:46:25;;;;;;;375.95;38.40;;;6.30;99.90;;;;;;2615307;54;20063;-68
2021/12/24 00:48:53;;;;;;;363.20;38.50;;;6.30;99.90;;;;;;2615709;54;20046;-68
2021/12/24 00:56:50;;;;;;;376.70;40.15;;;6.50;99.90;;;;;;2615978;54;20618;-70
2021/12/24 00:59:16;;;;;;;264.60;35.53;;;6.50;99.90;;;;;;2615260;47;20069;-69
2021/12/24 01:01:41;;;;;;;220.05;32.17;;;6.50;99.90;;;;;;2615269;54;20055;-70
2021/12/24 01:04:08;;;;;;;178.73;28.38;;;6.50;99.90;;;;;;2614866;54;20077;-70
2021/12/24 01:06:34;;;;;;;156.52;27.00;;;6.60;99.90;;;;;;2616102;54;20023;-70
2021/12/24 01:09:00;;;;;;;168.20;26.17;;;6.60;99.90;;;;;;2616395;54;20042;-70
2021/12/24 01:11:27;;;;;;;135.52;23.98;;;6.70;99.90;;;;;;2616711;39;20411;-70
2021/12/24 01:13:53;;;;;;;154.60;25.20;;;6.70;99.90;;;;;;2616316;54;20077;-70
2021/12/24 01:16:33;;;;;;;145.18;25.10;;;6.80;99.90;;;;;;2616243;54;20037;-70
2021/12/24 01:23:55;;;;;;;138.85;24.23;;;6.90;99.90;;;;;;2616248;46;20086;-70
2021/12/24 01:26:37;;;;;;;160.73;25.80;;;6.90;99.90;;;;;;2615858;54;20038;-70
2021/12/24 01:44:59;;;;;;;149.63;26.33;;;7.10;99.90;;;;;;2616534;54;20038;-68
2021/12/24 01:47:26;;;;;;;162.65;27.25;;;7.20;99.90;;;;;;2616442;54;20038;-69
2021/12/24 01:49:52;;;;;;;155.68;25.40;;;7.20;99.90;;;;;;2616159;54;20031;-69
2021/12/24 01:52:19;;;;;;;161.27;25.52;;;7.20;99.90;;;;;;2615987;54;20031;-69
2021/12/24 01:54:45;;;;;;;127.60;24.25;;;7.30;99.90;;;;;;2616421;54;20060;-68
2021/12/24 01:57:12;;;;;;;136.75;23.60;;;7.20;99.90;;;;;;2616799;46;20070;-69
2021/12/24 01:59:39;;;;;;;144.10;23.98;;;7.20;99.90;;;;;;2615917;54;20074;-69
2021/12/24 02:02:05;;;;;;;99.32;21.70;;;7.30;99.90;;;;;;2617763;31;20478;-68
2021/12/24 02:04:31;;;;;;;125.72;23.48;;;7.30;99.90;;;;;;2616218;54;20039;-69
2021/12/24 02:06:57;;;;;;;126.32;24.20;;;7.30;99.90;;;;;;2616214;54;20038;-69
2021/12/24 02:09:23;;;;;;;147.93;25.30;;;7.30;99.90;;;;;;2616219;54;20061;-69
2021/12/24 02:11:49;;;;;;;141.75;26.45;;;7.40;99.90;;;;;;2616673;54;20126;-69
2021/12/24 02:14:19;;;;;;;146.27;26.80;;;7.40;99.90;;;;;;2616324;54;20034;-69
2021/12/24 02:17:06;;;;;;;164.57;28.25;;;7.40;99.90;;;;;;2615743;54;20023;-69
2021/12/24 02:30:38;;;;;;;185.55;28.42;;;7.50;99.90;;;;;;2616080;54;20558;-68
2021/12/24 02:33:05;;;;;;;154.13;26.27;;;7.50;99.90;;;;;;2616434;39;20507;-68
2021/12/24 02:35:34;;;;;;;163.70;28.45;;;7.50;99.90;;;;;;2615702;51;20109;-68
2021/12/24 02:38:01;;;;;;;152.65;27.02;;;7.50;99.90;;;;;;2617333;39;20489;-69
2021/12/24 02:40:28;;;;;;;141.20;27.30;;;7.50;99.90;;;;;;2615990;54;20090;-68
2021/12/24 02:42:56;;;;;;;186.45;28.27;;;7.50;99.90;;;;;;2616482;54;20046;-69
2021/12/24 02:45:24;;;;;;;170.77;28.75;;;7.50;99.90;;;;;;2615740;54;20126;-68
2021/12/24 02:56:01;;;;;;;174.98;27.50;;;7.50;99.90;;;;;;2616146;54;20042;-68
2021/12/24 02:58:27;;;;;;;125.57;25.27;;;7.50;99.90;;;;;;2616220;54;20051;-69
2021/12/24 03:00:53;;;;;;;143.13;25.55;;;7.50;99.90;;;;;;2616421;46;20030;-68
2021/12/24 03:03:18;;;;;;;136.75;25.73;;;7.50;99.90;;;;;;2616522;47;20031;-68
2021/12/24 03:05:44;;;;;;;146.32;25.98;;;7.50;99.90;;;;;;2615577;54;20425;-68
2021/12/24 03:08:10;;;;;;;116.43;25.05;;;7.60;99.90;;;;;;2616358;54;20042;-68
2021/12/24 03:10:37;;;;;;;133.23;27.15;;;7.50;99.90;;;;;;2616094;54;20133;-68
2021/12/24 03:13:03;;;;;;;128.98;28.38;;;7.50;99.90;;;;;;2616658;54;20030;-68
2021/12/24 03:15:30;;;;;;;133.57;29.33;;;7.50;99.90;;;;;;2615806;54;20069;-68
2021/12/24 03:17:58;;;;;;;165.98;32.78;;;7.60;99.90;;;;;;2616665;54;20135;-68
2021/12/24 03:20:25;;;;;;;141.07;32.30;;;7.50;99.90;;;;;;2616756;39;20353;-68
2021/12/24 03:25:32;;;;;;;222.43;39.72;;;7.60;99.90;;;;;;2615990;54;20030;-68
2021/12/24 03:27:59;;;;;;;199.25;39.13;;;7.60;99.90;;;;;;2616262;54;20037;-68
2021/12/24 03:30:26;;;;;;;187.32;39.38;;;7.60;99.90;;;;;;2616276;54;20550;-68
2021/12/24 03:32:52;;;;;;;228.00;40.95;;;7.60;99.90;;;;;;2615689;54;20547;-68
2021/12/24 03:35:17;;;;;;;222.82;39.20;;;7.60;99.90;;;;;;2616136;46;20031;-68
2021/12/24 03:37:43;;;;;;;185.85;38.00;;;7.60;99.90;;;;;;2616185;54;20129;-68
2021/12/24 03:40:10;;;;;;;177.52;37.15;;;7.60;99.90;;;;;;2616435;54;20074;-68
2021/12/24 03:42:38;;;;;;;193.90;37.50;;;7.60;99.90;;;;;;2616210;54;20038;-68
2021/12/24 03:45:23;;;;;;;189.82;37.40;;;7.60;99.90;;;;;;2616324;39;20447;-68
2021/12/24 03:47:56;;;;;;;168.30;35.25;;;7.60;99.90;;;;;;2615949;54;20030;-68
2021/12/24 03:50:26;;;;;;;184.55;36.80;;;7.50;99.90;;;;;;2616025;54;20022;-69
2021/12/24 03:55:27;;;;;;;147.63;34.30;;;7.50;99.90;;;;;;2616359;54;20045;-68
2021/12/24 03:57:53;;;;;;;144.48;34.00;;;7.60;99.90;;;;;;2615994;54;20030;-68
2021/12/24 04:00:27;;;;;;;164.38;33.97;;;7.60;99.90;;;;;;2616202;47;20042;-68
2021/12/24 04:02:53;;;;;;;149.18;33.13;;;7.60;99.90;;;;;;2616124;54;20445;-68
2021/12/24 04:05:19;;;;;;;159.38;34.40;;;7.60;99.90;;;;;;2616103;54;20030;-67
2021/12/24 04:07:45;;;;;;;150.45;34.72;;;7.60;99.90;;;;;;2615973;54;20037;-67
2021/12/24 04:10:33;;;;;;;120.43;32.38;;;7.60;99.90;;;;;;2616058;54;20125;-67
2021/12/24 04:12:59;;;;;;;143.48;32.83;;;7.60;99.90;;;;;;2616594;39;20528;-67
2021/12/24 04:15:25;;;;;;;127.10;32.60;;;7.60;99.90;;;;;;2616169;54;20034;-67
2021/12/24 04:17:51;;;;;;;144.30;33.50;;;7.60;99.90;;;;;;2616070;54;20516;-67
2021/12/24 04:25:46;;;;;;;128.00;31.55;;;7.60;99.90;;;;;;2615892;54;20045;-68
2021/12/24 04:28:13;;;;;;;148.80;33.35;;;7.60;99.90;;;;;;2615971;54;20038;-68
2021/12/24 04:30:45;;;;;;;127.38;32.33;;;7.60;99.90;;;;;;2615644;47;20515;-68
2021/12/24 04:33:19;;;;;;;169.50;35.13;;;7.60;99.90;;;;;;2617685;47;20030;-69
2021/12/24 04:35:57;;;;;;;153.07;34.50;;;7.70;99.90;;;;;;2618135;54;20118;-69
2021/12/24 04:38:35;;;;;;;180.02;35.25;;;7.70;99.90;;;;;;2618122;54;20026;-69
2021/12/24 04:52:07;;;;;;;111.80;28.10;;;7.70;99.90;;;;;;2618845;54;20027;-69
2021/12/24 05:02:55;;;;;;;92.47;23.40;;;7.70;99.90;;;;;;2619125;39;20081;-70
2021/12/24 05:10:29;;;;;;;85.95;22.15;;;7.60;99.90;;;;;;2618661;54;20026;-70
2021/12/24 05:12:54;;;;;;;102.45;24.27;;;7.60;99.90;;;;;;2618775;54;20034;-70
2021/12/24 05:15:22;;;;;;;84.70;22.65;;;7.60;99.90;;;;;;2618589;54;20118;-70
2021/12/24 05:18:11;;;;;;;78.15;20.75;;;7.60;99.90;;;;;;2618719;54;20122;-68
2021/12/24 05:23:21;;;;;;;75.97;20.92;;;7.60;99.90;;;;;;2618787;54;20053;-69
2021/12/24 05:25:50;;;;;;;77.40;20.42;;;7.60;99.90;;;;;;2618483;54;20118;-69
2021/12/24 05:28:17;;;;;;;83.07;21.33;;;7.60;99.90;;;;;;2618737;54;20027;-69
2021/12/24 05:30:44;;;;;;;69.13;19.95;;;7.60;99.90;;;;;;2618580;54;20026;-69
2021/12/24 05:33:15;;;;;;;67.72;19.50;;;7.60;99.90;;;;;;2618790;54;20121;-69
2021/12/24 05:35:42;;;;;;;76.88;19.52;;;7.60;99.90;;;;;;2618678;54;20034;-69
2021/12/24 05:38:09;;;;;;;69.45;18.45;;;7.60;99.90;;;;;;2617758;54;20027;-69
2021/12/24 05:40:34;;;;;;;79.85;19.08;;;7.60;99.90;;;;;;2618578;54;20057;-69
2021/12/24 05:43:00;;;;;;;64.70;18.52;;;7.60;99.90;;;;;;2618486;54;20026;-69
2021/12/24 05:45:27;;;;;;;59.22;17.48;;;7.50;99.90;;;;;;2618628;54;20030;-69
2021/12/24 05:47:52;;;;;;;70.22;18.60;;;7.60;99.90;;;;;;2618484;54;20065;-70
2021/12/24 05:50:18;;;;;;;63.75;18.80;;;7.60;99.90;;;;;;2618482;54;20026;-70
2021/12/24 05:52:44;;;;;;;78.88;19.80;;;7.50;99.90;;;;;;2618453;54;20031;-69
2021/12/24 05:55:10;;;;;;;70.13;17.27;;;7.60;99.90;;;;;;2618617;54;20027;-70
2021/12/24 05:57:36;;;;;;;53.50;16.40;;;7.60;99.90;;;;;;2618607;54;20033;-70
2021/12/24 06:00:08;;;;;;;60.42;17.45;;;7.60;99.90;;;;;;2618930;39;20409;-70
2021/12/24 06:02:35;;;;;;;74.73;18.93;;;7.60;99.90;;;;;;2618561;54;20034;-69
2021/12/24 06:05:01;;;;;;;68.85;16.08;;;7.60;99.90;;;;;;2618143;54;20026;-69
2021/12/24 06:07:27;;;;;;;65.25;16.27;;;7.60;99.90;;;;;;2618489;54;20026;-69
2021/12/24 06:09:53;;;;;;;60.85;15.35;;;7.60;99.90;;;;;;2618485;54;20036;-69
2021/12/24 06:12:19;;;;;;;63.50;16.00;;;7.60;99.90;;;;;;2618420;54;20030;-69
2021/12/24 06:14:46;;;;;;;66.57;16.50;;;7.60;99.90;;;;;;2618299;54;20507;-70
2021/12/24 06:17:17;;;;;;;74.20;16.35;;;7.60;99.90;;;;;;2618251;54;20114;-70
2021/12/24 06:19:43;;;;;;;59.17;15.85;;;7.60;99.90;;;;;;2618093;54;20033;-70
2021/12/24 06:22:10;;;;;;;63.50;16.35;;;7.60;99.90;;;;;;2618760;39;20470;-69
2021/12/24 06:24:36;;;;;;;59.95;15.98;;;7.60;99.90;;;;;;2618487;54;20087;-69
2021/12/24 06:27:03;;;;;;;47.45;13.40;;;7.60;99.90;;;;;;2618380;54;20032;-69
2021/12/24 06:29:30;;;;;;;64.90;14.65;;;7.60;99.90;;;;;;2618058;54;20163;-69
2021/12/24 06:31:56;;;;;;;56.90;15.73;;;7.60;99.90;;;;;;2618740;39;20383;-69
2021/12/24 06:34:22;;;;;;;57.92;15.18;;;7.60;99.90;;;;;;2618460;54;20061;-69
2021/12/24 06:36:49;;;;;;;52.60;15.10;;;7.60;99.90;;;;;;2618531;54;20026;-69
2021/12/24 06:39:16;;;;;;;63.78;15.52;;;7.60;99.90;;;;;;2618296;54;20033;-69
2021/12/24 06:41:43;;;;;;;59.33;14.75;;;7.60;99.90;;;;;;2618456;54;20045;-69
2021/12/24 06:44:11;;;;;;;50.60;14.02;;;7.60;99.90;;;;;;2618372;54;20511;-69
2021/12/24 06:46:38;;;;;;;49.55;14.88;;;7.60;99.90;;;;;;2618713;39;20430;-69
2021/12/24 06:49:04;;;;;;;55.20;15.13;;;7.60;99.90;;;;;;2618069;54;20511;-69
2021/12/24 06:51:30;;;;;;;54.28;15.52;;;7.50;99.90;;;;;;2618416;47;20022;-69
2021/12/24 06:53:57;;;;;;;58.35;14.90;;;7.60;99.90;;;;;;2618266;54;20589;-69
2021/12/24 06:56:22;;;;;;;56.95;15.48;;;7.50;99.90;;;;;;2617601;54;20035;-69
2021/12/24 06:58:48;;;;;;;48.80;14.00;;;7.60;99.90;;;;;;2618256;54;20031;-69
2021/12/24 07:01:15;;;;;;;49.92;13.98;;;7.50;99.90;;;;;;2618124;54;20022;-68
2021/12/24 07:03:41;;;;;;;53.30;12.40;;;7.50;99.90;;;;;;2617843;54;20034;-69
2021/12/24 07:06:08;;;;;;;42.63;12.82;;;7.60;99.90;;;;;;2618149;54;20122;-68
2021/12/24 07:08:35;;;;;;;52.15;13.23;;;7.50;99.90;;;;;;2618344;54;20126;-69
2021/12/24 07:11:02;;;;;;;49.42;13.02;;;7.50;99.90;;;;;;2618117;47;20051;-68
2021/12/24 07:13:28;;;;;;;40.72;12.27;;;7.40;99.90;;;;;;2618226;54;20037;-68
2021/12/24 07:15:54;;;;;;;48.50;12.95;;;7.40;99.90;;;;;;2617953;54;20035;-68
2021/12/24 07:18:20;;;;;;;38.63;12.27;;;7.40;99.90;;;;;;2618254;54;20027;-69
2021/12/24 07:20:47;;;;;;;48.60;12.23;;;7.40;99.90;;;;;;2617165;54;20070;-69
2021/12/24 07:23:13;;;;;;;52.33;12.57;;;7.40;99.90;;;;;;2618067;54;20033;-69
2021/12/24 07:25:39;;;;;;;40.75;11.60;;;7.40;99.90;;;;;;2618073;54;20026;-69
2021/12/24 07:28:05;;;;;;;46.58;11.40;;;7.40;99.90;;;;;;2618133;54;20517;-69
2021/12/24 07:30:32;;;;;;;51.78;11.80;;;7.40;99.90;;;;;;2618258;54;20167;-69
2021/12/24 07:32:58;;;;;;;49.80;10.57;;;7.50;99.90;;;;;;2618359;46;20045;-68
2021/12/24 07:35:25;;;;;;;50.80;11.55;;;7.50;99.90;;;;;;2618330;54;20035;-70
2021/12/24 07:37:51;;;;;;;52.97;10.35;;;7.50;99.90;;;;;;2618046;54;20037;-70
2021/12/24 07:40:17;;;;;;;60.28;10.45;;;7.50;99.90;;;;;;2617944;54;20035;-70
2021/12/24 07:42:45;;;;;;;56.35;11.32;;;7.50;99.90;;;;;;2618200;54;20027;-70
2021/12/24 07:45:12;;;;;;;49.65;10.18;;;7.50;99.90;;;;;;2618334;54;20499;-70
2021/12/24 07:47:42;;;;;;;49.10;10.90;;;7.50;99.90;;;;;;2618213;54;20522;-71
2021/12/24 07:53:07;;;;;;;42.80;9.85;;;7.50;99.90;;;;;;2617100;54;20029;-69
2021/12/24 07:55:35;;;;;;;42.08;9.18;;;7.50;99.90;;;;;;2618678;54;20491;-70
2021/12/24 07:58:01;;;;;;;53.90;10.52;;;7.50;99.90;;;;;;2618259;54;20049;-70
2021/12/24 08:00:28;;;;;;;43.25;9.70;;;7.50;99.90;;;;;;2617874;54;20034;-72
2021/12/24 08:02:55;;;;;;;49.38;9.80;;;7.50;99.90;;;;;;2618138;54;20034;-72
2021/12/24 08:05:24;;;;;;;41.03;9.18;;;7.50;99.90;;;;;;2617864;54;20086;-72
2021/12/24 08:07:51;;;;;;;37.85;8.70;;;7.50;99.90;;;;;;2618211;54;20027;-71
2021/12/24 08:10:17;;;;;;;54.13;9.98;;;7.50;99.90;;;;;;2618030;54;20022;-71
2021/12/24 08:12:44;;;;;;;43.85;9.50;;;7.50;99.90;;;;;;2618197;54;20125;-70
2021/12/24 08:15:11;;;;;;;44.67;9.30;;;7.50;99.90;;;;;;2617830;54;20038;-70
2021/12/24 08:17:37;;;;;;;40.55;8.45;;;7.50;99.90;;;;;;2617977;54;20523;-71
2021/12/24 08:20:07;;;;;;;50.97;10.50;;;7.50;99.90;;;;;;2617136;54;20030;-71
2021/12/24 08:22:34;;;;;;;42.63;9.82;;;7.50;99.90;;;;;;2618129;54;20026;-72
2021/12/24 08:25:00;;;;;;;42.05;9.07;;;7.50;99.90;;;;;;2618127;54;20043;-71
2021/12/24 08:27:26;;;;;;;33.90;9.15;;;7.50;99.90;;;;;;2618110;46;20319;-70
2021/12/24 08:29:53;;;;;;;42.70;8.18;;;7.60;99.90;;;;;;2617861;54;20118;-70
2021/12/24 08:32:20;;;;;;;51.55;9.88;;;7.50;99.90;;;;;;2617903;54;20026;-70
2021/12/24 08:34:47;;;;;;;46.00;10.15;;;7.50;99.90;;;;;;2617851;54;20027;-70
2021/12/24 08:37:13;;;;;;;38.38;8.75;;;7.50;99.90;;;;;;2617661;54;20030;-69
2021/12/24 08:39:39;;;;;;;39.30;8.70;;;7.50;99.90;;;;;;2617449;54;20034;-70
2021/12/24 08:42:05;;;;;;;49.00;8.95;;;7.50;99.90;;;;;;2617238;54;20476;-69
2021/12/24 08:44:33;;;;;;;45.22;8.93;;;7.50;99.90;;;;;;2617130;54;20035;-71
2021/12/24 08:47:03;;;;;;;37.00;8.05;;;7.50;99.90;;;;;;2618063;54;20026;-71
2021/12/24 08:49:29;;;;;;;37.00;8.45;;;7.50;99.90;;;;;;2617618;54;20031;-70
2021/12/24 08:51:56;;;;;;;42.58;8.60;;;7.50;99.90;;;;;;2617985;54;20022;-68
2021/12/24 08:54:24;;;;;;;45.75;8.50;;;7.50;99.90;;;;;;2617880;51;20029;-68
2021/12/24 08:56:54;;;;;;;44.65;8.20;;;7.60;99.90;;;;;;2617072;47;20540;-66
2021/12/24 08:59:23;;;;;;;39.72;8.20;;;7.50;99.90;;;;;;2617519;54;20027;-67
2021/12/24 09:01:52;;;;;;;49.38;10.13;;;7.60;99.90;;;;;;2617665;54;20035;-67
2021/12/24 09:04:19;;;;;;;44.78;10.05;;;7.60;99.90;;;;;;2618008;39;20077;-67
2021/12/24 09:06:46;;;;;;;46.72;8.57;;;7.60;99.90;;;;;;2617807;54;20114;-67
2021/12/24 09:09:12;;;;;;;36.78;8.50;;;7.70;99.90;;;;;;2617752;54;20118;-64
2021/12/24 09:11:40;;;;;;;38.88;8.02;;;7.70;99.90;;;;;;2617747;54;20139;-72
2021/12/24 09:14:07;;;;;;;46.00;8.88;;;7.70;99.90;;;;;;2617911;54;20051;-72
2021/12/24 09:16:35;;;;;;;47.30;8.75;;;7.70;99.90;;;;;;2617887;54;20042;-71
2021/12/24 09:19:07;;;;;;;43.70;9.05;;;7.70;99.90;;;;;;2617632;47;20521;-71
2021/12/24 09:21:33;;;;;;;40.90;8.07;;;7.70;99.90;;;;;;2617609;54;20030;-72
2021/12/24 09:24:01;;;;;;;37.97;9.10;;;7.70;99.90;;;;;;2617547;54;20057;-73
2021/12/24 09:26:32;;;;;;;37.35;8.38;;;7.70;99.90;;;;;;2617925;54;20023;-72
2021/12/24 09:29:00;;;;;;;38.55;8.45;;;7.70;99.90;;;;;;2618372;54;20033;-73
2021/12/24 09:31:26;;;;;;;40.85;9.90;;;7.70;99.90;;;;;;2618567;54;20026;-73
2021/12/24 09:33:54;;;;;;;35.00;7.70;;;7.70;99.90;;;;;;2617977;54;20149;-73
2021/12/24 09:36:26;;;;;;;41.80;8.73;;;7.70;99.90;;;;;;2618486;54;20022;-72
2021/12/24 09:38:54;;;;;;;36.50;8.38;;;7.70;99.90;;;;;;2618437;54;20545;-73
2021/12/24 09:41:21;;;;;;;43.92;8.05;;;7.70;99.90;;;;;;2618395;54;20030;-73
2021/12/24 09:43:51;;;;;;;35.55;8.07;;;7.70;99.90;;;;;;2618408;54;20138;-73
2021/12/24 09:46:17;;;;;;;40.13;8.63;;;7.70;99.90;;;;;;2618385;54;20052;-67
2021/12/24 09:48:43;;;;;;;38.03;9.13;;;7.70;99.90;;;;;;2618516;54;20546;-73
2021/12/24 09:51:09;;;;;;;43.75;10.90;;;7.70;99.90;;;;;;2618285;54;20022;-72
2021/12/24 09:53:38;;;;;;;45.53;9.13;;;7.70;99.90;;;;;;2618393;54;20026;-73
2021/12/24 09:56:05;;;;;;;36.60;8.07;;;7.70;99.90;;;;;;2618513;54;20027;-70
2021/12/24 09:58:32;;;;;;;26.83;8.13;;;7.70;99.90;;;;;;2617703;54;20023;-72
2021/12/24 10:00:58;;;;;;;38.58;9.02;;;7.80;99.90;;;;;;2617821;39;20415;-73
